Time;durP1;ratioP1;P1;durP2;ratioP2;P2;SDS_P1;SDS_P2;PMS_P1;PMS_P2;Temp;Humidity;BMP_temperature;BMP_pressure;BME280_temperature;BME280_humidity;BME280_pressure;Samples;Min_cycle;Max_cycle;Signal;HPM_P1;HPM_P2
2023/10/17 00:00:25;;;;;;;4.27;3.90;;;;;;;7.44;58.31;99003.34;6921929;28;20212;-83
2023/10/17 00:03:54;;;;;;;5.80;3.40;;;;;;;7.84;57.49;99005.63;6923033;28;20200;-83
2023/10/17 00:07:15;;;;;;;6.17;3.83;;;;;;;7.83;56.57;98965.59;6921443;28;20234;-82
2023/10/17 00:10:41;;;;;;;3.83;3.50;;;;;;;7.73;56.73;98995.34;6920781;28;20203;-82
2023/10/17 00:14:07;;;;;;;3.80;3.50;;;;;;;7.89;56.50;98952.25;6913599;28;20584;-82
2023/10/17 00:17:33;;;;;;;3.90;3.50;;;;;;;7.90;55.43;98937.78;6919951;28;20736;-82
2023/10/17 00:21:04;;;;;;;3.80;3.37;;;;;;;8.04;55.84;98996.06;6911136;28;20573;-82
2023/10/17 00:24:26;;;;;;;4.37;3.60;;;;;;;7.77;54.95;98910.78;6920526;28;20669;-84
2023/10/17 00:27:48;;;;;;;3.93;3.53;;;;;;;7.68;55.06;98937.88;6916594;28;20369;-84
2023/10/17 00:31:10;;;;;;;4.03;3.63;;;;;;;7.70;54.55;98901.81;6908233;28;20213;-84
2023/10/17 00:34:34;;;;;;;3.97;3.57;;;;;;;7.35;55.71;98947.25;6906920;28;20225;-84
2023/10/17 00:37:57;;;;;;;5.07;4.00;;;;;;;6.89;56.52;98827.72;6908682;28;20238;-85
2023/10/17 00:41:29;;;;;;;4.47;4.07;;;;;;;7.38;54.71;98853.03;6921946;28;20222;-85
2023/10/17 00:44:50;;;;;;;4.33;3.93;;;;;;;6.73;55.95;98866.19;6909960;28;20579;-84
2023/10/17 00:48:18;;;;;;;3.73;3.43;;;;;;;7.16;56.79;98904.84;6897571;28;20297;-84
2023/10/17 00:51:41;;;;;;;4.33;3.80;;;;;;;7.08;55.65;98852.13;6893574;28;20661;-83
2023/10/17 00:55:04;;;;;;;4.10;3.70;;;;;;;7.11;56.52;98897.38;6892674;28;20232;-84
2023/10/17 00:58:27;;;;;;;6.50;4.37;;;;;;;6.60;56.29;98824.97;6910193;28;20209;-84
2023/10/17 01:01:48;;;;;;;4.23;3.90;;;;;;;7.19;56.00;98886.56;6919135;28;20212;-84
2023/10/17 01:05:11;;;;;;;4.47;4.00;;;;;;;7.29;56.38;98849.59;6920524;28;20285;-84
2023/10/17 01:08:39;;;;;;;4.00;3.60;;;;;;;7.10;56.46;98844.78;6923771;28;20689;-84
2023/10/17 01:12:01;;;;;;;4.60;3.90;;;;;;;7.17;57.13;98915.41;6923690;28;20216;-84
2023/10/17 01:15:27;;;;;;;4.17;3.77;;;;;;;6.89;56.91;98852.66;6924083;28;20326;-85
2023/10/17 01:18:48;;;;;;;3.90;3.60;;;;;;;7.03;55.93;98809.00;6922575;28;20210;-84
2023/10/17 01:22:10;;;;;;;3.27;3.03;;;;;;;6.68;56.73;98830.25;6921154;28;20754;-84
2023/10/17 01:25:35;;;;;;;3.60;3.30;;;;;;;6.93;57.13;98877.25;6923071;28;20816;-84
2023/10/17 01:28:58;;;;;;;4.00;3.63;;;;;;;6.75;57.75;98880.25;6923136;28;20211;-84
2023/10/17 01:32:21;;;;;;;4.47;3.53;;;;;;;6.95;58.04;98918.13;6921916;28;20212;-84
2023/10/17 01:35:44;;;;;;;4.33;3.50;;;;;;;6.28;57.88;98847.44;6918500;28;20232;-83
2023/10/17 01:39:08;;;;;;;4.70;3.83;;;;;;;7.09;57.28;98911.97;6920277;28;20224;-84
2023/10/17 01:42:33;;;;;;;4.17;3.33;;;;;;;7.05;57.19;98906.13;6920545;28;22295;-84
2023/10/17 01:45:54;;;;;;;4.33;3.70;;;;;;;6.37;57.48;98853.56;6922598;28;20237;-84
2023/10/17 01:49:19;;;;;;;5.20;3.57;;;;;;;7.07;56.77;98909.47;6923333;28;20282;-84
2023/10/17 01:52:42;;;;;;;4.17;3.83;;;;;;;6.97;56.90;98900.00;6917674;28;20209;-83
2023/10/17 01:56:13;;;;;;;5.20;4.07;;;;;;;7.28;56.31;98919.50;6922270;28;20240;-84
2023/10/17 01:59:38;;;;;;;4.30;3.77;;;;;;;6.62;56.17;98896.09;6925645;28;20256;-84
2023/10/17 02:03:00;;;;;;;3.90;3.50;;;;;;;6.48;57.15;98902.19;6927324;28;20214;-84
2023/10/17 02:06:34;;;;;;;4.23;3.90;;;;;;;5.69;59.47;98844.53;6927326;28;20226;-84
2023/10/17 02:09:56;;;;;;;4.23;3.40;;;;;;;6.09;58.41;98881.84;6920289;28;20202;-86
2023/10/17 02:13:18;;;;;;;3.97;3.57;;;;;;;6.40;58.57;98851.38;6918939;28;20213;-86
2023/10/17 02:16:41;;;;;;;4.67;3.90;;;;;;;5.57;58.66;98769.22;6918747;28;20306;-86
2023/10/17 02:20:20;;;;;;;5.13;4.07;;;;;;;6.53;58.11;98905.19;6918000;28;20296;-87
2023/10/17 02:23:49;;;;;;;5.17;3.87;;;;;;;6.41;57.73;98892.34;6915359;28;20579;-85
2023/10/17 02:27:12;;;;;;;3.97;3.57;;;;;;;6.64;57.35;98861.91;6916307;28;20223;-86
2023/10/17 02:30:34;;;;;;;4.30;3.70;;;;;;;6.40;56.96;98816.56;6915945;28;20225;-86
2023/10/17 02:33:57;;;;;;;4.10;3.70;;;;;;;7.12;56.11;98900.88;6892266;28;20715;-85
2023/10/17 02:37:19;;;;;;;4.57;3.60;;;;;;;6.42;57.01;98853.88;6892830;28;20613;-85
2023/10/17 02:40:42;;;;;;;3.70;3.40;;;;;;;6.52;56.86;98857.97;6896050;28;20259;-86
2023/10/17 02:44:03;;;;;;;4.47;4.07;;;;;;;7.05;56.90;98913.34;6922328;28;20220;-85
2023/10/17 02:47:25;;;;;;;4.00;3.60;;;;;;;6.81;56.20;98876.00;6918084;28;20382;-86
2023/10/17 02:50:58;;;;;;;3.97;3.67;;;;;;;6.61;56.61;98898.94;6921851;28;20207;-87
2023/10/17 02:54:20;;;;;;;5.77;4.47;;;;;;;6.60;56.29;98921.38;6932808;28;20236;-85
2023/10/17 02:57:45;;;;;;;4.00;3.67;;;;;;;6.82;56.60;98932.09;6931127;28;20224;-86
2023/10/17 03:01:11;;;;;;;4.90;3.43;;;;;;;6.76;57.13;98930.13;6931957;28;20289;-85
2023/10/17 03:04:36;;;;;;;4.80;3.60;;;;;;;6.75;56.60;98928.47;6925531;28;20204;-86
2023/10/17 03:08:09;;;;;;;4.07;3.63;;;;;;;7.02;56.48;98927.09;6925032;28;20235;-86
2023/10/17 03:11:36;;;;;;;4.53;3.70;;;;;;;6.39;56.83;98881.84;6926094;28;20205;-86
2023/10/17 03:18:37;;;;;;;3.93;3.63;;;;;;;6.68;57.04;98890.03;6924840;28;20203;-85
2023/10/17 03:22:16;;;;;;;4.47;3.87;;;;;;;6.78;56.77;98871.84;6917243;28;20301;-85
2023/10/17 03:25:40;;;;;;;3.93;3.63;;;;;;;6.90;56.40;98891.84;6910374;28;20225;-85
2023/10/17 03:32:52;;;;;;;4.80;4.30;;;;;;;5.97;57.28;98827.91;6928036;28;20236;-85
2023/10/17 03:39:52;;;;;;;3.93;3.63;;;;;;;6.99;57.08;98909.53;6928184;28;20240;-85
2023/10/17 03:43:15;;;;;;;4.70;4.30;;;;;;;6.61;56.51;98866.81;6928984;28;20210;-87
2023/10/17 03:46:37;;;;;;;5.93;4.13;;;;;;;5.74;58.22;98810.94;6931005;28;20228;-86
2023/10/17 03:50:06;;;;;;;3.80;3.50;;;;;;;6.34;58.71;98868.16;6931206;28;20207;-86
2023/10/17 03:53:29;;;;;;;3.77;3.47;;;;;;;6.86;57.20;98903.94;6920336;28;20208;-85
2023/10/17 03:57:02;;;;;;;4.70;4.20;;;;;;;6.98;57.23;98907.03;6929295;28;20282;-86
2023/10/17 04:00:27;;;;;;;5.40;5.00;;;;;;;7.04;56.85;98915.19;6921891;28;20208;-86
2023/10/17 04:03:53;;;;;;;4.70;4.30;;;;;;;7.00;56.36;98897.78;6927628;28;20204;-86
2023/10/17 04:16:21;;;;;;;5.53;4.40;;;;;;;6.92;58.60;98900.56;6914074;28;20243;-85
2023/10/17 04:19:48;;;;;;;8.07;4.80;;;;;;;6.72;58.76;98877.91;6930079;28;20302;-86
2023/10/17 04:23:21;;;;;;;6.40;4.60;;;;;;;7.04;58.29;98871.47;6928674;28;20206;-85
2023/10/17 04:26:46;;;;;;;7.43;4.57;;;;;;;6.61;58.06;98851.53;6930267;28;20223;-86
2023/10/17 04:30:15;;;;;;;4.57;4.17;;;;;;;6.61;58.31;98800.66;6928195;28;20206;-87
2023/10/17 04:33:41;;;;;;;4.77;4.20;;;;;;;6.88;58.02;98837.59;6923283;28;20205;-86
2023/10/17 04:37:05;;;;;;;4.80;4.40;;;;;;;7.08;57.41;98864.72;6926616;28;20323;-86
2023/10/17 04:40:37;;;;;;;4.70;4.30;;;;;;;6.98;58.20;98867.66;6921089;28;20212;-86
2023/10/17 04:44:02;;;;;;;5.07;4.47;;;;;;;7.08;58.30;98857.50;6930118;28;20204;-86
2023/10/17 06:16:49;;;;;;;5.20;4.80;;;;;;;7.05;59.10;98849.84;6927486;28;20301;-85
2023/10/17 06:19:42;;;;;;;6.30;5.70;;;;;;;8.08;56.92;98790.56;6879937;28;20279;-84
2023/10/17 06:27:12;;;;;;;5.10;4.50;;;;;;;8.92;56.25;98870.44;6911863;28;20236;-84
2023/10/17 06:30:45;;;;;;;7.53;4.73;;;;;;;8.59;56.20;98821.75;6925660;28;20210;-83
2023/10/17 06:34:07;;;;;;;5.23;4.73;;;;;;;9.13;55.37;98881.19;6928546;28;20203;-84
2023/10/17 06:37:42;;;;;;;5.77;5.27;;;;;;;8.97;55.98;98881.44;6919852;28;20234;-84
2023/10/17 06:41:14;;;;;;;8.93;5.97;;;;;;;8.47;56.89;98886.91;6918419;28;20207;-84
2023/10/17 06:44:51;;;;;;;8.90;6.17;;;;;;;8.69;56.90;98886.75;6923202;28;20219;-84
2023/10/17 06:48:13;;;;;;;9.13;6.00;;;;;;;8.82;57.01;98889.56;6907108;28;20220;-84
2023/10/17 06:51:39;;;;;;;8.03;6.23;;;;;;;8.98;57.26;98879.38;6924461;28;20212;-84
2023/10/17 06:55:07;;;;;;;7.73;5.70;;;;;;;8.93;57.44;98888.22;6926737;28;20227;-83
2023/10/17 06:58:29;;;;;;;14.13;12.47;;;;;;;9.35;56.57;98899.78;6922177;28;20230;-83
2023/10/17 07:02:10;;;;;;;8.70;6.27;;;;;;;9.25;55.91;98859.75;6917959;28;20352;-82
2023/10/17 07:05:35;;;;;;;6.07;5.43;;;;;;;9.33;56.59;98885.69;6923262;28;20227;-83
2023/10/17 07:08:56;;;;;;;7.97;6.10;;;;;;;9.45;55.64;98865.28;6927816;28;20285;-82
2023/10/17 07:12:20;;;;;;;8.67;6.10;;;;;;;9.57;55.20;98848.38;6923836;28;20666;-83
2023/10/17 07:15:48;;;;;;;6.73;5.73;;;;;;;9.33;55.86;98846.16;6929775;28;20678;-82
2023/10/17 07:22:53;;;;;;;9.00;6.23;;;;;;;9.95;55.85;98867.66;6916749;28;20232;-84
2023/10/17 07:26:17;;;;;;;6.53;5.30;;;;;;;9.95;55.49;98833.50;6918034;28;20222;-85
2023/10/17 07:29:45;;;;;;;10.27;6.60;;;;;;;9.62;55.81;98785.91;6925370;28;20200;-82
2023/10/17 07:33:08;;;;;;;8.13;6.00;;;;;;;10.12;55.75;98825.91;6915000;28;20584;-83
2023/10/17 07:36:29;;;;;;;8.27;5.60;;;;;;;10.47;54.67;98793.28;6920729;28;20290;-83
2023/10/17 07:40:16;;;;;;;10.03;5.77;;;;;;;10.59;54.06;98788.09;6919350;28;20204;-83
2023/10/17 07:47:34;;;;;;;8.07;5.87;;;;;;;11.15;54.33;98846.03;6912949;28;20220;-83
2023/10/17 07:50:57;;;;;;;8.87;6.03;;;;;;;11.02;54.85;98852.25;6915374;28;20204;-80
2023/10/17 07:54:28;;;;;;;9.73;5.90;;;;;;;11.49;54.77;98851.19;6912165;28;20211;-80
2023/10/17 07:57:52;;;;;;;7.33;5.93;;;;;;;11.75;54.23;98843.88;6918473;28;20888;-80
2023/10/17 08:01:17;;;;;;;10.77;6.87;;;;;;;12.12;53.34;98839.63;6920271;28;20290;-80
2023/10/17 08:04:43;;;;;;;11.50;7.53;;;;;;;12.31;50.27;98834.13;6917996;28;20288;-79
2023/10/17 08:08:08;;;;;;;9.60;7.57;;;;;;;12.68;50.08;98844.13;6912485;28;20310;-79
2023/10/17 08:11:31;;;;;;;10.60;7.60;;;;;;;13.02;48.72;98827.47;6920898;28;20207;-80
2023/10/17 08:14:59;;;;;;;8.90;7.57;;;;;;;13.29;48.53;98826.19;6911979;28;20219;-80
2023/10/17 08:18:24;;;;;;;10.43;8.20;;;;;;;12.39;48.88;98828.47;6915367;28;20279;-80
2023/10/17 08:21:59;;;;;;;11.17;8.50;;;;;;;12.89;48.23;98830.25;6919407;28;20210;-81
2023/10/17 08:25:27;;;;;;;12.60;8.27;;;;;;;12.62;47.54;98798.19;6908972;28;20737;-79
2023/10/17 08:28:50;;;;;;;11.07;7.93;;;;;;;12.01;49.50;98827.63;6934965;28;20217;-81
2023/10/17 08:32:39;;;;;;;8.30;7.30;;;;;;;12.66;47.92;98775.91;6938886;28;20232;-79
2023/10/17 08:36:01;;;;;;;11.30;8.37;;;;;;;11.89;50.67;98829.31;6948153;28;20238;-79
2023/10/17 08:43:10;;;;;;;10.77;8.03;;;;;;;11.99;49.87;98826.97;6893337;28;20276;-79
2023/10/17 08:46:32;;;;;;;12.00;8.83;;;;;;;12.29;50.15;98838.09;6896522;28;20230;-81
2023/10/17 08:49:54;;;;;;;12.63;9.37;;;;;;;12.20;51.08;98834.81;6898800;28;20669;-81
2023/10/17 08:53:20;;;;;;;11.17;9.17;;;;;;;11.77;51.69;98824.78;6899225;28;20204;-81
2023/10/17 08:56:45;;;;;;;14.93;11.27;;;;;;;12.02;52.13;98831.97;6900071;28;20239;-82
2023/10/17 09:00:48;;;;;;;11.30;8.93;;;;;;;12.33;50.38;98823.94;6903074;28;20587;-80
2023/10/17 09:04:10;;;;;;;11.20;9.50;;;;;;;12.22;49.98;98838.13;6893771;28;20197;-80
2023/10/17 09:07:42;;;;;;;11.83;9.37;;;;;;;11.37;52.53;98831.25;6893505;28;20303;-81
2023/10/17 09:11:07;;;;;;;13.50;10.33;;;;;;;12.05;51.21;98815.31;6899284;28;20204;-80
2023/10/17 09:14:36;;;;;;;11.07;9.10;;;;;;;11.66;52.60;98825.44;6876775;28;20842;-80
2023/10/17 09:18:07;;;;;;;11.90;9.17;;;;;;;12.03;52.47;98825.53;6885427;28;20223;-80
2023/10/17 09:21:29;;;;;;;12.43;9.73;;;;;;;11.64;52.72;98822.13;6890703;28;20208;-80
2023/10/17 09:24:51;;;;;;;12.70;9.40;;;;;;;12.35;51.29;98819.16;6866748;28;20325;-80
2023/10/17 09:28:22;;;;;;;11.83;9.83;;;;;;;12.46;51.14;98817.63;6872334;28;20251;-80
2023/10/17 09:31:45;;;;;;;13.67;10.87;;;;;;;11.76;52.40;98801.50;6881215;28;20294;-79
2023/10/17 09:35:11;;;;;;;12.20;9.83;;;;;;;12.28;52.10;98818.34;6895780;28;20315;-81
2023/10/17 09:38:33;;;;;;;13.90;10.60;;;;;;;13.13;49.91;98806.97;6894342;28;20675;-80
2023/10/17 09:41:56;;;;;;;12.53;9.97;;;;;;;13.03;49.86;98806.63;6900286;28;20212;-79
2023/10/17 09:45:18;;;;;;;12.87;9.97;;;;;;;12.39;51.54;98814.94;6923121;28;20224;-80
2023/10/17 09:48:42;;;;;;;11.30;10.10;;;;;;;12.30;51.36;98810.03;6928390;28;20302;-80
2023/10/17 09:52:09;;;;;;;12.83;9.73;;;;;;;13.48;49.37;98794.56;6912219;28;20209;-79
2023/10/17 09:55:31;;;;;;;10.40;9.10;;;;;;;13.90;48.14;98799.13;6903144;28;20278;-79
2023/10/17 09:58:55;;;;;;;12.83;10.03;;;;;;;13.67;49.01;98802.50;6920844;28;20916;-80
2023/10/17 10:02:20;;;;;;;12.60;10.87;;;;;;;14.19;48.19;98801.94;6915020;28;20231;-78
2023/10/17 10:05:43;;;;;;;14.20;10.60;;;;;;;14.17;47.04;98800.47;6918370;28;20582;-78
2023/10/17 10:09:29;;;;;;;13.50;10.67;;;;;;;13.58;48.64;98805.72;6912165;28;20212;-78
2023/10/17 10:12:58;;;;;;;12.13;9.67;;;;;;;14.77;46.69;98803.00;6916017;28;20293;-79
2023/10/17 10:16:21;;;;;;;16.57;10.07;;;;;;;13.73;48.06;98804.31;6910220;28;20630;-79
2023/10/17 10:19:58;;;;;;;19.37;11.27;;;;;;;13.42;48.49;98817.13;6919796;28;20212;-79
2023/10/17 10:23:31;;;;;;;14.23;10.47;;;;;;;13.92;48.26;98805.16;6919631;28;20681;-79
2023/10/17 10:27:18;;;;;;;13.33;10.00;;;;;;;14.18;47.58;98802.13;6908616;28;20219;-79
2023/10/17 10:30:43;;;;;;;12.13;10.07;;;;;;;14.50;47.31;98809.84;6910917;28;20212;-79
2023/10/17 10:34:06;;;;;;;13.27;10.77;;;;;;;14.39;46.85;98802.47;6915154;28;20590;-79
2023/10/17 10:37:27;;;;;;;13.03;10.70;;;;;;;13.94;47.89;98792.19;6905365;28;20220;-79
2023/10/17 10:40:50;;;;;;;11.33;9.83;;;;;;;14.06;47.90;98784.97;6898840;28;20209;-79
2023/10/17 10:44:12;;;;;;;13.13;10.80;;;;;;;14.34;47.08;98790.69;6891466;28;20249;-79
2023/10/17 10:47:33;;;;;;;12.67;10.70;;;;;;;13.67;48.88;98796.25;6902838;28;20288;-79
2023/10/17 10:50:56;;;;;;;11.83;10.60;;;;;;;14.64;48.25;98794.22;6919694;28;20261;-80
2023/10/17 10:54:18;;;;;;;12.67;10.53;;;;;;;14.94;46.07;98792.28;6914077;28;20204;-79
2023/10/17 10:57:41;;;;;;;11.13;10.03;;;;;;;14.20;48.00;98778.31;6910476;28;20234;-79
2023/10/17 11:01:07;;;;;;;13.20;10.57;;;;;;;14.33;47.84;98784.41;6915786;28;20290;-79
2023/10/17 11:04:29;;;;;;;10.97;9.87;;;;;;;14.21;48.11;98778.09;6926733;28;20196;-79
2023/10/17 11:08:00;;;;;;;12.20;10.37;;;;;;;14.65;47.08;98799.41;6915055;28;20224;-80
2023/10/17 11:11:21;;;;;;;12.33;10.17;;;;;;;15.05;47.15;98786.84;6913160;28;20191;-80
2023/10/17 11:14:44;;;;;;;11.40;10.20;;;;;;;15.01;46.06;98780.25;6904113;28;20264;-80
2023/10/17 11:18:07;;;;;;;12.53;11.00;;;;;;;15.51;45.53;98780.69;6928437;28;20295;-80
2023/10/17 11:21:29;;;;;;;15.83;11.70;;;;;;;15.92;44.20;98753.31;6917144;28;20690;-81
2023/10/17 11:24:54;;;;;;;14.53;11.40;;;;;;;15.29;45.68;98772.22;6917031;28;20288;-81
2023/10/17 11:28:17;;;;;;;13.37;10.90;;;;;;;15.09;46.06;98779.06;6917345;28;20295;-82
2023/10/17 11:31:41;;;;;;;17.43;11.00;;;;;;;16.16;45.57;98750.28;6916899;28;20214;-81
2023/10/17 11:35:06;;;;;;;14.30;11.50;;;;;;;16.16;43.84;98763.88;6920980;28;20204;-80
2023/10/17 11:38:34;;;;;;;12.87;10.83;;;;;;;15.91;44.16;98754.38;6913915;28;20229;-82
2023/10/17 11:41:59;;;;;;;11.63;10.43;;;;;;;14.57;46.87;98734.59;6908618;28;20330;-79
2023/10/17 11:45:25;;;;;;;13.83;11.03;;;;;;;14.92;47.65;98745.53;6916888;28;20594;-80
2023/10/17 11:48:48;;;;;;;17.43;11.20;;;;;;;14.28;49.44;98738.16;6916414;28;20566;-78
2023/10/17 11:52:12;;;;;;;14.83;10.97;;;;;;;16.25;46.20;98739.84;6915903;28;20212;-78
2023/10/17 11:55:41;;;;;;;13.87;10.90;;;;;;;15.39;46.37;98715.47;6906317;28;20225;-78
2023/10/17 11:59:03;;;;;;;13.10;10.57;;;;;;;16.43;46.41;98731.50;6909832;28;20366;-77
2023/10/17 12:02:26;;;;;;;13.67;12.23;;;;;;;15.42;45.34;98733.19;6903007;28;20215;-78
2023/10/17 12:05:48;;;;;;;15.13;12.33;;;;;;;14.71;48.29;98721.66;6902247;28;20651;-78
2023/10/17 12:09:18;;;;;;;12.63;11.20;;;;;;;16.25;44.38;98724.34;6905517;28;20253;-78
2023/10/17 12:12:40;;;;;;;13.53;11.20;;;;;;;16.91;44.84;98710.03;6908399;28;20210;-79
2023/10/17 12:16:08;;;;;;;16.47;11.30;;;;;;;17.38;42.99;98722.25;6910991;28;20279;-78
2023/10/17 12:19:30;;;;;;;11.60;10.17;;;;;;;17.60;42.16;98706.75;6908256;28;20289;-78
2023/10/17 12:22:55;;;;;;;11.97;10.63;;;;;;;17.22;42.50;98709.44;6917285;28;20728;-79
2023/10/17 12:26:19;;;;;;;14.20;10.83;;;;;;;17.86;42.05;98698.63;6918260;28;20226;-78
2023/10/17 12:29:40;;;;;;;12.33;10.27;;;;;;;17.11;43.68;98696.75;6915317;28;20206;-78
2023/10/17 12:33:02;;;;;;;14.63;11.17;;;;;;;16.66;43.53;98696.00;6914196;28;20649;-78
2023/10/17 12:36:24;;;;;;;11.27;9.70;;;;;;;17.04;43.15;98690.66;6916155;28;20645;-78
2023/10/17 12:39:47;;;;;;;14.87;11.10;;;;;;;17.34;43.42;98680.19;6903336;28;20244;-78
2023/10/17 12:43:11;;;;;;;14.43;10.53;;;;;;;16.96;42.95;98666.53;6905370;28;20673;-78
2023/10/17 12:46:32;;;;;;;13.47;10.07;;;;;;;17.90;42.14;98669.78;6912113;28;20225;-78
2023/10/17 12:49:54;;;;;;;12.13;9.67;;;;;;;17.14;42.67;98667.09;6921324;28;20239;-79
2023/10/17 12:53:16;;;;;;;12.13;10.03;;;;;;;16.56;44.14;98652.25;6908979;28;20351;-79
2023/10/17 12:56:39;;;;;;;11.33;10.13;;;;;;;16.17;44.46;98677.66;6915308;28;20277;-78
2023/10/17 13:00:02;;;;;;;12.63;9.70;;;;;;;15.84;45.54;98674.84;6921623;28;20205;-78
2023/10/17 13:03:25;;;;;;;12.53;9.13;;;;;;;16.33;45.83;98653.22;6914186;28;20214;-79
2023/10/17 13:06:48;;;;;;;11.73;9.93;;;;;;;16.44;45.29;98662.41;6919589;28;20313;-78
2023/10/17 13:10:11;;;;;;;10.73;9.30;;;;;;;16.16;44.21;98614.25;6920187;28;20295;-79
2023/10/17 13:13:34;;;;;;;15.07;12.00;;;;;;;17.52;43.93;98658.94;6920457;28;20673;-79
2023/10/17 13:16:56;;;;;;;13.70;9.93;;;;;;;16.68;43.58;98642.16;6919652;28;20237;-79
2023/10/17 13:20:22;;;;;;;13.03;9.93;;;;;;;16.37;44.53;98664.41;6920409;28;20725;-79
2023/10/17 13:23:44;;;;;;;10.30;9.23;;;;;;;16.45;44.67;98659.44;6917923;28;20240;-78
2023/10/17 13:27:05;;;;;;;11.80;9.53;;;;;;;16.81;44.23;98641.81;6918339;28;20268;-78
2023/10/17 13:30:32;;;;;;;11.13;8.83;;;;;;;16.24;45.14;98646.53;6918761;28;20321;-78
2023/10/17 13:33:55;;;;;;;12.17;9.10;;;;;;;15.91;45.56;98640.16;6909360;28;20586;-79
2023/10/17 13:37:16;;;;;;;10.53;9.20;;;;;;;16.57;44.57;98632.97;6917770;28;20862;-78
2023/10/17 13:40:41;;;;;;;9.43;7.87;;;;;;;17.32;42.51;98628.66;6919792;28;20691;-79
2023/10/17 13:44:04;;;;;;;12.40;9.10;;;;;;;17.38;42.58;98643.19;6918812;28;20309;-79
2023/10/17 13:47:27;;;;;;;16.57;10.80;;;;;;;16.25;45.13;98647.34;6917648;28;20253;-80
2023/10/17 13:50:48;;;;;;;11.53;9.43;;;;;;;16.51;44.75;98624.97;6918012;28;20655;-79
2023/10/17 13:54:13;;;;;;;11.83;10.27;;;;;;;17.51;42.51;98596.50;6916934;28;20843;-79
2023/10/17 13:57:35;;;;;;;11.70;9.77;;;;;;;17.16;43.58;98621.34;6916269;28;20244;-79
2023/10/17 14:00:59;;;;;;;9.60;8.60;;;;;;;17.23;43.15;98637.53;6897585;28;20656;-79
2023/10/17 14:04:24;;;;;;;12.57;7.97;;;;;;;17.43;42.52;98637.81;6917365;28;20688;-79
2023/10/17 14:07:48;;;;;;;10.33;7.83;;;;;;;17.01;43.82;98645.66;6917809;28;20269;-80
2023/10/17 14:11:17;;;;;;;33.40;22.37;;;;;;;16.18;45.26;98630.34;6917672;28;20220;-80
2023/10/17 14:14:39;;;;;;;13.00;8.23;;;;;;;16.57;44.50;98613.91;6915699;28;20206;-80
2023/10/17 14:18:09;;;;;;;9.77;8.00;;;;;;;16.68;43.26;98566.72;6916939;28;20300;-80
2023/10/17 14:21:36;;;;;;;10.80;8.03;;;;;;;17.01;43.17;98621.16;6920427;28;20729;-79
2023/10/17 14:25:04;;;;;;;9.43;7.63;;;;;;;17.71;42.20;98583.94;6911501;28;20671;-78
2023/10/17 14:28:25;;;;;;;12.53;8.17;;;;;;;17.02;42.97;98592.81;6916822;28;20234;-78
2023/10/17 14:31:46;;;;;;;10.47;6.33;;;;;;;18.01;41.40;98605.25;6923781;28;20277;-78
2023/10/17 14:35:09;;;;;;;6.27;5.30;;;;;;;18.04;40.10;98593.84;6916038;28;20308;-78
2023/10/17 14:38:33;;;;;;;6.50;5.80;;;;;;;18.14;40.60;98599.38;6921898;28;20944;-78
2023/10/17 14:41:55;;;;;;;6.77;6.17;;;;;;;17.96;40.29;98599.72;6900621;28;20214;-78
2023/10/17 14:45:17;;;;;;;7.40;5.90;;;;;;;17.46;40.85;98591.78;6914904;28;20311;-78
2023/10/17 14:48:39;;;;;;;7.97;7.07;;;;;;;17.59;40.52;98596.03;6917065;28;20354;-77
2023/10/17 14:52:00;;;;;;;8.87;6.60;;;;;;;16.56;42.61;98587.78;6916151;28;20265;-78
2023/10/17 14:55:26;;;;;;;6.23;5.33;;;;;;;17.55;41.23;98573.09;6915319;28;20320;-78
2023/10/17 14:58:49;;;;;;;9.10;5.93;;;;;;;17.80;40.77;98581.56;6915444;28;20579;-78
2023/10/17 15:02:11;;;;;;;6.93;5.20;;;;;;;18.02;40.49;98582.34;6920409;28;20207;-78
2023/10/17 15:05:32;;;;;;;6.20;5.60;;;;;;;17.44;40.84;98582.22;6914879;28;20355;-78
2023/10/17 15:08:54;;;;;;;5.70;5.20;;;;;;;17.94;40.39;98586.38;6899062;28;20215;-78
2023/10/17 15:12:17;;;;;;;6.87;5.27;;;;;;;17.66;40.53;98564.78;6902325;28;20222;-79
2023/10/17 15:15:39;;;;;;;6.47;5.83;;;;;;;17.36;41.09;98583.47;6923034;28;20741;-78
2023/10/17 15:19:01;;;;;;;5.87;5.07;;;;;;;17.60;41.03;98603.97;6915609;28;20230;-79
2023/10/17 15:22:22;;;;;;;7.50;5.77;;;;;;;17.57;40.48;98596.28;6925037;28;20269;-78
2023/10/17 15:25:44;;;;;;;6.73;5.97;;;;;;;17.39;40.70;98591.16;6915133;28;20627;-79
2023/10/17 15:29:07;;;;;;;6.30;5.70;;;;;;;17.45;41.38;98590.16;6914475;28;20208;-76
2023/10/17 15:32:28;;;;;;;6.80;5.60;;;;;;;17.46;40.82;98591.78;6914485;28;20210;-79
2023/10/17 15:35:52;;;;;;;6.27;5.67;;;;;;;17.40;40.98;98598.25;6915000;28;20701;-78
2023/10/17 15:39:14;;;;;;;7.30;5.37;;;;;;;17.55;40.62;98595.75;6914982;28;20716;-79
2023/10/17 15:42:36;;;;;;;7.90;5.97;;;;;;;17.52;41.10;98603.59;6913540;28;20218;-79
2023/10/17 15:45:59;;;;;;;5.63;4.93;;;;;;;17.38;41.25;98581.34;6914219;28;20280;-78
2023/10/17 15:49:21;;;;;;;6.90;6.20;;;;;;;17.29;41.72;98593.72;6914612;28;20205;-79
2023/10/17 15:52:43;;;;;;;6.67;5.83;;;;;;;16.74;42.54;98601.13;6915501;28;20206;-78
2023/10/17 15:56:05;;;;;;;8.10;6.17;;;;;;;16.93;42.23;98599.75;6923802;28;20309;-79
2023/10/17 15:59:26;;;;;;;6.80;5.37;;;;;;;16.85;42.44;98605.66;6909052;28;20321;-79
2023/10/17 16:02:49;;;;;;;9.30;7.93;;;;;;;16.93;42.17;98607.94;6913118;28;20668;-78
2023/10/17 16:06:11;;;;;;;9.17;6.70;;;;;;;16.88;42.46;98612.50;6901063;28;20241;-79
2023/10/17 16:09:33;;;;;;;7.13;6.10;;;;;;;16.61;42.64;98582.41;6911664;28;20281;-78
2023/10/17 16:12:54;;;;;;;7.20;6.50;;;;;;;16.75;42.77;98605.47;6907629;28;20304;-78
2023/10/17 16:16:16;;;;;;;8.93;6.73;;;;;;;16.44;43.29;98606.09;6913769;28;20327;-78
2023/10/17 16:19:40;;;;;;;7.27;6.33;;;;;;;16.53;43.26;98617.38;6912862;28;20226;-79
2023/10/17 16:23:01;;;;;;;7.47;6.77;;;;;;;16.38;43.47;98617.09;6897502;28;20215;-78
2023/10/17 16:26:23;;;;;;;8.30;6.43;;;;;;;16.25;44.08;98623.69;6905945;28;20596;-78
2023/10/17 16:29:46;;;;;;;8.60;6.93;;;;;;;16.14;44.11;98630.00;6903159;28;20243;-78
2023/10/17 16:33:08;;;;;;;11.37;7.63;;;;;;;16.25;44.05;98618.25;6912730;28;20292;-79
2023/10/17 16:36:31;;;;;;;8.40;6.40;;;;;;;16.17;44.14;98625.97;6914923;28;20228;-79
2023/10/17 16:39:53;;;;;;;7.87;6.27;;;;;;;15.30;46.03;98623.69;6916588;28;20294;-78
2023/10/17 16:43:14;;;;;;;8.60;7.70;;;;;;;15.53;45.67;98629.09;6915757;28;20276;-78
2023/10/17 16:46:36;;;;;;;9.63;6.80;;;;;;;15.15;46.14;98605.16;6913194;28;20325;-78
2023/10/17 16:49:57;;;;;;;7.57;6.77;;;;;;;15.28;46.36;98632.06;6923939;28;20292;-78
2023/10/17 16:53:20;;;;;;;7.43;6.53;;;;;;;14.70;47.24;98603.31;6918675;28;20335;-79
2023/10/17 16:56:42;;;;;;;8.40;7.20;;;;;;;14.94;46.87;98632.94;6913477;28;20255;-79
2023/10/17 17:00:04;;;;;;;7.33;6.43;;;;;;;14.55;48.04;98640.94;6916286;28;20313;-79
2023/10/17 17:03:28;;;;;;;7.73;6.33;;;;;;;14.99;46.92;98641.19;6912572;28;20220;-78
2023/10/17 17:06:50;;;;;;;9.10;8.07;;;;;;;15.39;46.09;98638.59;6908155;28;20228;-79
2023/10/17 17:10:14;;;;;;;8.90;6.83;;;;;;;15.00;47.16;98652.88;6910363;28;20204;-78
2023/10/17 17:13:36;;;;;;;7.70;6.90;;;;;;;14.36;48.69;98640.22;6907876;28;20283;-79
2023/10/17 17:16:58;;;;;;;7.60;6.80;;;;;;;14.83;47.75;98639.19;6912954;28;20746;-78
2023/10/17 17:20:20;;;;;;;10.80;8.00;;;;;;;14.71;47.72;98634.81;6909107;28;20242;-79
2023/10/17 17:23:41;;;;;;;16.90;10.70;;;;;;;14.69;47.88;98639.66;6915180;28;20253;-80
2023/10/17 17:27:04;;;;;;;12.43;9.20;;;;;;;14.77;47.53;98648.28;6917453;28;20244;-80
2023/10/17 17:30:26;;;;;;;10.77;8.03;;;;;;;14.29;48.07;98596.06;6916692;28;20203;-81
2023/10/17 17:33:48;;;;;;;9.03;7.70;;;;;;;14.71;47.46;98641.09;6911172;28;20331;-80
2023/10/17 17:37:09;;;;;;;7.60;6.80;;;;;;;14.69;47.72;98635.03;6917245;28;20368;-79
2023/10/17 17:40:31;;;;;;;10.47;7.70;;;;;;;14.59;47.78;98632.13;6917845;28;20287;-80
2023/10/17 17:43:54;;;;;;;12.70;8.10;;;;;;;14.65;48.25;98633.88;6916998;28;20204;-80
2023/10/17 17:47:17;;;;;;;11.80;9.87;;;;;;;14.08;49.34;98636.44;6921861;28;20258;-80
2023/10/17 17:50:39;;;;;;;11.67;9.93;;;;;;;14.28;49.07;98640.53;6924143;28;20193;-79
2023/10/17 17:54:04;;;;;;;9.93;8.90;;;;;;;14.09;49.35;98608.28;6924392;28;20195;-79
2023/10/17 17:57:25;;;;;;;9.00;8.07;;;;;;;14.28;49.35;98643.25;6924533;28;21002;-80
2023/10/17 18:00:50;;;;;;;9.53;8.57;;;;;;;14.22;49.52;98637.94;6922026;28;20232;-80
2023/10/17 18:04:12;;;;;;;10.23;8.83;;;;;;;13.92;50.33;98634.41;6920155;28;20556;-80